sensor_id;sensor_type;location;lat;lon;timestamp;P1;durP1;ratioP1;P2;durP2;ratioP2
31974;SDS011;18500;43.618;1.474;2023-03-19T08:40:24;566.15;;;532.15;;
31974;SDS011;18500;43.618;1.474;2023-03-19T08:42:50;556.45;;;522.58;;
31974;SDS011;18500;43.618;1.474;2023-03-19T08:45:17;539.03;;;506.80;;
31974;SDS011;18500;43.618;1.474;2023-03-19T08:47:43;519.17;;;489.05;;
31974;SDS011;18500;43.618;1.474;2023-03-19T08:50:10;580.20;;;544.58;;
31974;SDS011;18500;43.618;1.474;2023-03-19T08:52:36;568.38;;;533.20;;
31974;SDS011;18500;43.618;1.474;2023-03-19T08:55:03;626.63;;;586.78;;
31974;SDS011;18500;43.618;1.474;2023-03-19T08:57:29;636.78;;;596.35;;
31974;SDS011;18500;43.618;1.474;2023-03-19T08:59:56;681.55;;;636.42;;
31974;SDS011;18500;43.618;1.474;2023-03-19T09:02:22;608.25;;;569.17;;
31974;SDS011;18500;43.618;1.474;2023-03-19T09:04:48;652.05;;;605.10;;
31974;SDS011;18500;43.618;1.474;2023-03-19T09:07:13;718.53;;;669.63;;
31974;SDS011;18500;43.618;1.474;2023-03-19T09:09:41;689.92;;;644.00;;
31974;SDS011;18500;43.618;1.474;2023-03-19T09:12:07;688.53;;;641.88;;
31974;SDS011;18500;43.618;1.474;2023-03-19T09:14:35;678.08;;;633.85;;
31974;SDS011;18500;43.618;1.474;2023-03-19T09:17:01;725.78;;;676.20;;
31974;SDS011;18500;43.618;1.474;2023-03-19T09:19:27;719.15;;;670.55;;
31974;SDS011;18500;43.618;1.474;2023-03-19T09:21:53;533.85;;;498.92;;
31974;SDS011;18500;43.618;1.474;2023-03-19T09:24:19;599.38;;;561.38;;
31974;SDS011;18500;43.618;1.474;2023-03-19T09:26:45;567.60;;;531.80;;
31974;SDS011;18500;43.618;1.474;2023-03-19T09:29:11;630.33;;;589.42;;
31974;SDS011;18500;43.618;1.474;2023-03-19T09:31:37;646.50;;;604.53;;
31974;SDS011;18500;43.618;1.474;2023-03-19T09:34:03;676.67;;;631.95;;
31974;SDS011;18500;43.618;1.474;2023-03-19T09:36:31;661.95;;;618.55;;
31974;SDS011;18500;43.618;1.474;2023-03-19T09:38:57;642.70;;;601.08;;
31974;SDS011;18500;43.618;1.474;2023-03-19T09:46:57;695.50;;;647.80;;
31974;SDS011;18500;43.618;1.474;2023-03-19T09:49:26;862.38;;;788.45;;
31974;SDS011;18500;43.618;1.474;2023-03-19T09:52:14;721.20;;;672.97;;
31974;SDS011;18500;43.618;1.474;2023-03-19T09:54:55;711.70;;;660.88;;
31974;SDS011;18500;43.618;1.474;2023-03-19T09:57:24;608.03;;;568.60;;
31974;SDS011;18500;43.618;1.474;2023-03-19T09:59:53;542.13;;;508.27;;
31974;SDS011;18500;43.618;1.474;2023-03-19T10:02:26;621.65;;;581.05;;
31974;SDS011;18500;43.618;1.474;2023-03-19T10:13:10;611.95;;;572.63;;
31974;SDS011;18500;43.618;1.474;2023-03-19T10:15:39;715.80;;;667.47;;
31974;SDS011;18500;43.618;1.474;2023-03-19T10:18:11;613.72;;;573.92;;
31974;SDS011;18500;43.618;1.474;2023-03-19T10:23:31;625.65;;;583.83;;
31974;SDS011;18500;43.618;1.474;2023-03-19T10:26:04;730.42;;;680.58;;
31974;SDS011;18500;43.618;1.474;2023-03-19T10:28:33;666.90;;;622.45;;
31974;SDS011;18500;43.618;1.474;2023-03-19T10:39:44;951.88;;;872.95;;
31974;SDS011;18500;43.618;1.474;2023-03-19T10:47:47;903.20;;;832.83;;
31974;SDS011;18500;43.618;1.474;2023-03-19T10:50:20;839.75;;;775.28;;
31974;SDS011;18500;43.618;1.474;2023-03-19T10:52:56;712.17;;;662.33;;
31974;SDS011;18500;43.618;1.474;2023-03-19T10:55:50;584.35;;;545.97;;
31974;SDS011;18500;43.618;1.474;2023-03-19T10:58:21;601.15;;;562.10;;
31974;SDS011;18500;43.618;1.474;2023-03-19T11:00:54;656.53;;;612.72;;
31974;SDS011;18500;43.618;1.474;2023-03-19T11:03:38;656.78;;;614.58;;
31974;SDS011;18500;43.618;1.474;2023-03-19T11:06:18;627.60;;;587.17;;
31974;SDS011;18500;43.618;1.474;2023-03-19T11:08:58;615.13;;;575.83;;
31974;SDS011;18500;43.618;1.474;2023-03-19T11:11:44;701.80;;;654.30;;
31974;SDS011;18500;43.618;1.474;2023-03-19T11:16:56;662.50;;;616.97;;
31974;SDS011;18500;43.618;1.474;2023-03-19T11:19:33;761.38;;;707.30;;
31974;SDS011;18500;43.618;1.474;2023-03-19T11:27:38;625.20;;;584.03;;
31974;SDS011;18500;43.618;1.474;2023-03-19T11:30:15;628.33;;;585.63;;
31974;SDS011;18500;43.618;1.474;2023-03-19T11:35:24;616.53;;;575.90;;
31974;SDS011;18500;43.618;1.474;2023-03-19T11:38:00;506.30;;;476.13;;
31974;SDS011;18500;43.618;1.474;2023-03-19T11:45:29;682.45;;;637.88;;
31974;SDS011;18500;43.618;1.474;2023-03-19T11:48:08;795.33;;;731.33;;
31974;SDS011;18500;43.618;1.474;2023-03-19T11:53:37;801.97;;;744.22;;
31974;SDS011;18500;43.618;1.474;2023-03-19T11:58:53;822.28;;;761.50;;
31974;SDS011;18500;43.618;1.474;2023-03-19T12:15:50;745.13;;;690.60;;
31974;SDS011;18500;43.618;1.474;2023-03-19T12:24:11;688.30;;;634.33;;
31974;SDS011;18500;43.618;1.474;2023-03-19T12:29:59;714.75;;;662.92;;
31974;SDS011;18500;43.618;1.474;2023-03-19T12:35:36;699.20;;;642.80;;
31974;SDS011;18500;43.618;1.474;2023-03-19T12:41:08;572.08;;;532.10;;
31974;SDS011;18500;43.618;1.474;2023-03-19T12:46:22;495.95;;;458.42;;
31974;SDS011;18500;43.618;1.474;2023-03-19T12:48:50;786.72;;;727.67;;
31974;SDS011;18500;43.618;1.474;2023-03-19T12:51:23;607.75;;;565.25;;
31974;SDS011;18500;43.618;1.474;2023-03-19T12:53:53;663.33;;;617.30;;
31974;SDS011;18500;43.618;1.474;2023-03-19T12:56:44;685.88;;;639.13;;
31974;SDS011;18500;43.618;1.474;2023-03-19T13:02:08;552.15;;;517.42;;
31974;SDS011;18500;43.618;1.474;2023-03-19T13:08:01;715.35;;;665.10;;
31974;SDS011;18500;43.618;1.474;2023-03-19T13:10:40;574.20;;;535.00;;
31974;SDS011;18500;43.618;1.474;2023-03-19T13:16:09;558.42;;;514.75;;
31974;SDS011;18500;43.618;1.474;2023-03-19T13:21:32;643.78;;;595.28;;
31974;SDS011;18500;43.618;1.474;2023-03-19T13:26:30;760.55;;;702.47;;
31974;SDS011;18500;43.618;1.474;2023-03-19T13:28:58;834.60;;;767.53;;
31974;SDS011;18500;43.618;1.474;2023-03-19T13:31:26;737.95;;;679.88;;
31974;SDS011;18500;43.618;1.474;2023-03-19T13:34:16;410.90;;;384.90;;
31974;SDS011;18500;43.618;1.474;2023-03-19T13:37:10;862.95;;;794.05;;
31974;SDS011;18500;43.618;1.474;2023-03-19T13:39:36;1065.97;;;964.60;;
31974;SDS011;18500;43.618;1.474;2023-03-19T13:57:44;835.25;;;766.97;;
31974;SDS011;18500;43.618;1.474;2023-03-19T14:03:26;937.22;;;857.13;;
31974;SDS011;18500;43.618;1.474;2023-03-19T14:05:55;891.17;;;811.60;;
31974;SDS011;18500;43.618;1.474;2023-03-19T14:08:23;1027.68;;;926.65;;
31974;SDS011;18500;43.618;1.474;2023-03-19T14:10:52;1128.18;;;999.90;;
31974;SDS011;18500;43.618;1.474;2023-03-19T14:16:18;1145.93;;;999.90;;
31974;SDS011;18500;43.618;1.474;2023-03-19T14:18:46;1013.50;;;919.63;;
31974;SDS011;18500;43.618;1.474;2023-03-19T14:21:13;858.83;;;786.78;;
31974;SDS011;18500;43.618;1.474;2023-03-19T14:23:56;638.08;;;591.83;;
31974;SDS011;18500;43.618;1.474;2023-03-19T14:26:53;995.00;;;905.08;;
31974;SDS011;18500;43.618;1.474;2023-03-19T14:29:21;1056.05;;;957.17;;
31974;SDS011;18500;43.618;1.474;2023-03-19T14:31:51;1129.05;;;999.90;;
31974;SDS011;18500;43.618;1.474;2023-03-19T14:37:22;1175.57;;;999.90;;
31974;SDS011;18500;43.618;1.474;2023-03-19T14:39:53;1119.35;;;999.90;;
31974;SDS011;18500;43.618;1.474;2023-03-19T14:42:46;1040.75;;;947.30;;
31974;SDS011;18500;43.618;1.474;2023-03-19T14:55:35;1214.47;;;999.90;;
31974;SDS011;18500;43.618;1.474;2023-03-19T14:58:02;1510.35;;;999.90;;
31974;SDS011;18500;43.618;1.474;2023-03-19T15:00:36;1388.03;;;999.90;;
31974;SDS011;18500;43.618;1.474;2023-03-19T15:03:52;1629.72;;;999.90;;
31974;SDS011;18500;43.618;1.474;2023-03-19T15:06:05;1015.80;;;913.97;;
31974;SDS011;18500;43.618;1.474;2023-03-19T15:08:34;874.40;;;800.50;;
31974;SDS011;18500;43.618;1.474;2023-03-19T15:19:09;779.38;;;716.10;;
31974;SDS011;18500;43.618;1.474;2023-03-19T15:21:36;757.83;;;702.50;;
31974;SDS011;18500;43.618;1.474;2023-03-19T15:24:21;835.10;;;768.45;;
31974;SDS011;18500;43.618;1.474;2023-03-19T15:26:48;534.22;;;493.90;;
31974;SDS011;18500;43.618;1.474;2023-03-19T15:29:13;742.88;;;689.50;;
31974;SDS011;18500;43.618;1.474;2023-03-19T15:32:29;826.15;;;760.70;;
31974;SDS011;18500;43.618;1.474;2023-03-19T15:35:06;806.13;;;745.17;;
31974;SDS011;18500;43.618;1.474;2023-03-19T15:37:34;774.75;;;714.97;;
31974;SDS011;18500;43.618;1.474;2023-03-19T15:40:05;871.25;;;804.20;;
31974;SDS011;18500;43.618;1.474;2023-03-19T15:42:34;798.60;;;739.20;;
31974;SDS011;18500;43.618;1.474;2023-03-19T15:45:06;822.92;;;758.55;;
31974;SDS011;18500;43.618;1.474;2023-03-19T15:47:34;813.30;;;748.50;;
31974;SDS011;18500;43.618;1.474;2023-03-19T15:52:40;781.95;;;722.72;;
31974;SDS011;18500;43.618;1.474;2023-03-19T15:55:09;778.63;;;720.92;;
31974;SDS011;18500;43.618;1.474;2023-03-19T15:57:38;751.25;;;697.20;;
31974;SDS011;18500;43.618;1.474;2023-03-19T16:00:06;600.38;;;559.90;;
31974;SDS011;18500;43.618;1.474;2023-03-19T16:02:34;559.40;;;523.45;;
31974;SDS011;18500;43.618;1.474;2023-03-19T16:05:03;465.02;;;435.40;;
31974;SDS011;18500;43.618;1.474;2023-03-19T16:09:56;422.45;;;397.42;;
31974;SDS011;18500;43.618;1.474;2023-03-19T16:12:40;392.35;;;369.00;;
31974;SDS011;18500;43.618;1.474;2023-03-19T16:20:47;570.35;;;531.63;;
31974;SDS011;18500;43.618;1.474;2023-03-19T16:23:32;895.17;;;824.30;;
31974;SDS011;18500;43.618;1.474;2023-03-19T16:28:39;853.63;;;787.55;;
31974;SDS011;18500;43.618;1.474;2023-03-19T16:31:20;752.05;;;698.15;;
31974;SDS011;18500;43.618;1.474;2023-03-19T16:33:48;830.85;;;768.38;;
31974;SDS011;18500;43.618;1.474;2023-03-19T16:36:16;865.50;;;799.58;;
31974;SDS011;18500;43.618;1.474;2023-03-19T16:38:43;777.28;;;719.88;;
31974;SDS011;18500;43.618;1.474;2023-03-19T16:41:36;873.92;;;804.95;;
31974;SDS011;18500;43.618;1.474;2023-03-19T16:44:12;911.50;;;839.85;;
31974;SDS011;18500;43.618;1.474;2023-03-19T16:46:43;968.95;;;887.38;;
31974;SDS011;18500;43.618;1.474;2023-03-19T16:49:09;922.35;;;849.30;;
31974;SDS011;18500;43.618;1.474;2023-03-19T16:51:35;970.88;;;890.83;;
31974;SDS011;18500;43.618;1.474;2023-03-19T16:54:02;989.83;;;906.88;;
31974;SDS011;18500;43.618;1.474;2023-03-19T16:56:28;961.95;;;884.17;;
31974;SDS011;18500;43.618;1.474;2023-03-19T16:58:54;998.00;;;908.58;;
31974;SDS011;18500;43.618;1.474;2023-03-19T17:01:24;955.78;;;877.88;;
31974;SDS011;18500;43.618;1.474;2023-03-19T17:03:50;991.65;;;908.40;;
31974;SDS011;18500;43.618;1.474;2023-03-19T17:06:16;965.95;;;883.20;;
31974;SDS011;18500;43.618;1.474;2023-03-19T17:08:43;967.17;;;886.92;;
31974;SDS011;18500;43.618;1.474;2023-03-19T17:11:14;984.58;;;900.75;;
31974;SDS011;18500;43.618;1.474;2023-03-19T17:13:51;766.25;;;709.35;;
31974;SDS011;18500;43.618;1.474;2023-03-19T17:16:18;998.30;;;907.42;;
31974;SDS011;18500;43.618;1.474;2023-03-19T17:18:43;796.70;;;733.67;;
31974;SDS011;18500;43.618;1.474;2023-03-19T17:21:21;770.47;;;712.67;;
31974;SDS011;18500;43.618;1.474;2023-03-19T17:23:57;663.75;;;616.88;;
31974;SDS011;18500;43.618;1.474;2023-03-19T17:26:31;766.35;;;709.22;;
31974;SDS011;18500;43.618;1.474;2023-03-19T17:28:57;778.40;;;720.53;;
31974;SDS011;18500;43.618;1.474;2023-03-19T17:31:27;700.42;;;650.13;;
31974;SDS011;18500;43.618;1.474;2023-03-19T17:34:05;497.05;;;464.17;;
31974;SDS011;18500;43.618;1.474;2023-03-19T17:36:40;594.95;;;552.78;;
31974;SDS011;18500;43.618;1.474;2023-03-19T17:39:09;352.67;;;329.25;;
31974;SDS011;18500;43.618;1.474;2023-03-19T17:41:35;505.15;;;468.63;;
31974;SDS011;18500;43.618;1.474;2023-03-19T17:44:01;879.35;;;807.95;;
31974;SDS011;18500;43.618;1.474;2023-03-19T17:46:27;965.78;;;884.75;;
31974;SDS011;18500;43.618;1.474;2023-03-19T17:48:54;977.30;;;896.67;;
31974;SDS011;18500;43.618;1.474;2023-03-19T17:51:21;848.38;;;783.67;;
31974;SDS011;18500;43.618;1.474;2023-03-19T17:53:49;962.42;;;882.17;;
31974;SDS011;18500;43.618;1.474;2023-03-19T17:56:17;934.67;;;860.92;;
31974;SDS011;18500;43.618;1.474;2023-03-19T17:58:45;933.08;;;861.30;;
31974;SDS011;18500;43.618;1.474;2023-03-19T18:01:28;930.08;;;854.45;;
31974;SDS011;18500;43.618;1.474;2023-03-19T18:03:55;929.95;;;854.58;;
31974;SDS011;18500;43.618;1.474;2023-03-19T18:06:25;965.42;;;885.70;;
31974;SDS011;18500;43.618;1.474;2023-03-19T18:08:56;908.75;;;837.67;;
31974;SDS011;18500;43.618;1.474;2023-03-19T18:11:21;940.30;;;865.85;;
31974;SDS011;18500;43.618;1.474;2023-03-19T18:13:47;969.90;;;890.72;;
31974;SDS011;18500;43.618;1.474;2023-03-19T18:18:56;979.60;;;897.67;;
31974;SDS011;18500;43.618;1.474;2023-03-19T18:21:25;907.25;;;836.25;;
31974;SDS011;18500;43.618;1.474;2023-03-19T18:23:54;974.03;;;895.05;;
31974;SDS011;18500;43.618;1.474;2023-03-19T18:26:23;948.85;;;871.70;;
31974;SDS011;18500;43.618;1.474;2023-03-19T18:28:49;941.20;;;865.58;;
31974;SDS011;18500;43.618;1.474;2023-03-19T18:31:19;935.10;;;860.72;;
31974;SDS011;18500;43.618;1.474;2023-03-19T18:33:49;943.00;;;867.47;;
31974;SDS011;18500;43.618;1.474;2023-03-19T18:36:18;904.75;;;834.22;;
31974;SDS011;18500;43.618;1.474;2023-03-19T18:38:46;915.05;;;842.60;;
31974;SDS011;18500;43.618;1.474;2023-03-19T18:41:16;877.28;;;809.75;;
31974;SDS011;18500;43.618;1.474;2023-03-19T18:43:43;858.28;;;793.17;;
31974;SDS011;18500;43.618;1.474;2023-03-19T18:46:12;683.63;;;635.70;;
31974;SDS011;18500;43.618;1.474;2023-03-19T18:48:42;743.03;;;688.55;;
31974;SDS011;18500;43.618;1.474;2023-03-19T18:51:09;817.97;;;756.20;;
31974;SDS011;18500;43.618;1.474;2023-03-19T18:53:35;892.80;;;821.78;;
31974;SDS011;18500;43.618;1.474;2023-03-19T18:56:01;875.20;;;801.63;;
31974;SDS011;18500;43.618;1.474;2023-03-19T18:58:31;710.55;;;660.38;;
31974;SDS011;18500;43.618;1.474;2023-03-19T19:00:58;493.85;;;459.30;;
31974;SDS011;18500;43.618;1.474;2023-03-19T19:03:28;406.88;;;380.67;;
31974;SDS011;18500;43.618;1.474;2023-03-19T19:05:55;245.45;;;229.43;;
31974;SDS011;18500;43.618;1.474;2023-03-19T19:08:21;347.10;;;325.13;;
31974;SDS011;18500;43.618;1.474;2023-03-19T19:10:50;302.17;;;282.27;;
31974;SDS011;18500;43.618;1.474;2023-03-19T19:13:23;688.63;;;630.22;;
31974;SDS011;18500;43.618;1.474;2023-03-19T19:15:53;208.35;;;194.57;;
31974;SDS011;18500;43.618;1.474;2023-03-19T19:18:22;375.38;;;347.83;;
31974;SDS011;18500;43.618;1.474;2023-03-19T19:20:51;766.63;;;702.95;;
31974;SDS011;18500;43.618;1.474;2023-03-19T19:23:18;826.40;;;756.92;;
31974;SDS011;18500;43.618;1.474;2023-03-19T19:25:46;578.25;;;534.47;;
31974;SDS011;18500;43.618;1.474;2023-03-19T19:28:28;275.98;;;257.60;;
31974;SDS011;18500;43.618;1.474;2023-03-19T19:31:02;534.50;;;491.70;;
31974;SDS011;18500;43.618;1.474;2023-03-19T19:33:29;357.65;;;332.77;;
31974;SDS011;18500;43.618;1.474;2023-03-19T19:35:59;959.13;;;871.78;;
31974;SDS011;18500;43.618;1.474;2023-03-19T19:38:25;1022.10;;;924.60;;
31974;SDS011;18500;43.618;1.474;2023-03-19T19:40:51;1117.85;;;996.97;;
31974;SDS011;18500;43.618;1.474;2023-03-19T19:43:20;1079.97;;;969.65;;
31974;SDS011;18500;43.618;1.474;2023-03-19T19:45:49;1055.50;;;956.08;;
31974;SDS011;18500;43.618;1.474;2023-03-19T19:48:20;1022.83;;;928.47;;
31974;SDS011;18500;43.618;1.474;2023-03-19T19:50:49;962.97;;;878.92;;
31974;SDS011;18500;43.618;1.474;2023-03-19T19:53:16;984.35;;;895.00;;
31974;SDS011;18500;43.618;1.474;2023-03-19T19:55:43;1018.85;;;922.67;;
31974;SDS011;18500;43.618;1.474;2023-03-19T19:58:16;502.10;;;462.15;;
31974;SDS011;18500;43.618;1.474;2023-03-19T20:00:48;1044.70;;;936.28;;
31974;SDS011;18500;43.618;1.474;2023-03-19T20:03:21;896.47;;;815.92;;
31974;SDS011;18500;43.618;1.474;2023-03-19T20:05:49;857.78;;;783.42;;
31974;SDS011;18500;43.618;1.474;2023-03-19T20:08:16;746.33;;;683.65;;
31974;SDS011;18500;43.618;1.474;2023-03-19T20:10:42;637.08;;;584.50;;
31974;SDS011;18500;43.618;1.474;2023-03-19T20:13:13;867.88;;;790.78;;
31974;SDS011;18500;43.618;1.474;2023-03-19T20:15:51;842.10;;;768.77;;
31974;SDS011;18500;43.618;1.474;2023-03-19T20:18:19;813.72;;;743.92;;
31974;SDS011;18500;43.618;1.474;2023-03-19T20:20:46;995.00;;;901.15;;
31974;SDS011;18500;43.618;1.474;2023-03-19T20:23:13;1032.60;;;933.83;;
31974;SDS011;18500;43.618;1.474;2023-03-19T20:25:40;999.80;;;907.10;;
31974;SDS011;18500;43.618;1.474;2023-03-19T20:28:10;1007.88;;;912.00;;
31974;SDS011;18500;43.618;1.474;2023-03-19T20:30:44;633.85;;;584.10;;
31974;SDS011;18500;43.618;1.474;2023-03-19T20:33:10;995.17;;;904.10;;
31974;SDS011;18500;43.618;1.474;2023-03-19T20:35:36;928.80;;;845.42;;
31974;SDS011;18500;43.618;1.474;2023-03-19T20:38:03;1072.93;;;969.05;;
31974;SDS011;18500;43.618;1.474;2023-03-19T20:40:31;1143.05;;;999.90;;
31974;SDS011;18500;43.618;1.474;2023-03-19T20:42:57;1185.47;;;999.90;;
31974;SDS011;18500;43.618;1.474;2023-03-19T20:45:26;1240.97;;;999.90;;
31974;SDS011;18500;43.618;1.474;2023-03-19T20:47:59;755.35;;;692.05;;
31974;SDS011;18500;43.618;1.474;2023-03-19T20:50:27;1175.53;;;999.90;;
31974;SDS011;18500;43.618;1.474;2023-03-19T20:52:54;1136.32;;;999.90;;
31974;SDS011;18500;43.618;1.474;2023-03-19T20:55:25;1039.38;;;934.60;;
31974;SDS011;18500;43.618;1.474;2023-03-19T20:57:55;1139.47;;;999.90;;
31974;SDS011;18500;43.618;1.474;2023-03-19T21:00:26;1147.18;;;999.90;;
31974;SDS011;18500;43.618;1.474;2023-03-19T21:02:57;1104.57;;;994.67;;
31974;SDS011;18500;43.618;1.474;2023-03-19T21:05:26;1067.25;;;962.80;;
31974;SDS011;18500;43.618;1.474;2023-03-19T21:08:04;1017.45;;;918.03;;
31974;SDS011;18500;43.618;1.474;2023-03-19T21:10:37;1094.88;;;982.08;;
31974;SDS011;18500;43.618;1.474;2023-03-19T21:13:04;1093.22;;;982.70;;
31974;SDS011;18500;43.618;1.474;2023-03-19T21:15:31;1097.00;;;989.85;;
31974;SDS011;18500;43.618;1.474;2023-03-19T21:17:56;1062.40;;;960.28;;
31974;SDS011;18500;43.618;1.474;2023-03-19T21:20:26;1075.60;;;970.47;;
31974;SDS011;18500;43.618;1.474;2023-03-19T21:25:44;1024.60;;;925.80;;
31974;SDS011;18500;43.618;1.474;2023-03-19T21:28:33;1010.67;;;918.72;;
31974;SDS011;18500;43.618;1.474;2023-03-19T21:31:00;1035.82;;;943.15;;
31974;SDS011;18500;43.618;1.474;2023-03-19T21:33:35;1052.95;;;948.45;;
31974;SDS011;18500;43.618;1.474;2023-03-19T21:36:01;1118.90;;;999.90;;
31974;SDS011;18500;43.618;1.474;2023-03-19T21:38:27;1073.57;;;973.50;;
31974;SDS011;18500;43.618;1.474;2023-03-19T21:40:59;1089.65;;;986.10;;
31974;SDS011;18500;43.618;1.474;2023-03-19T21:45:57;1019.97;;;922.75;;
31974;SDS011;18500;43.618;1.474;2023-03-19T21:48:30;996.10;;;901.70;;
31974;SDS011;18500;43.618;1.474;2023-03-19T21:50:58;1094.63;;;984.40;;
31974;SDS011;18500;43.618;1.474;2023-03-19T21:53:25;1062.57;;;963.70;;
31974;SDS011;18500;43.618;1.474;2023-03-19T21:55:51;1037.30;;;942.05;;
31974;SDS011;18500;43.618;1.474;2023-03-19T21:58:34;1126.93;;;999.90;;
31974;SDS011;18500;43.618;1.474;2023-03-19T22:03:27;1070.03;;;964.70;;
31974;SDS011;18500;43.618;1.474;2023-03-19T22:05:53;1107.50;;;996.53;;
31974;SDS011;18500;43.618;1.474;2023-03-19T22:08:20;1024.25;;;929.55;;
31974;SDS011;18500;43.618;1.474;2023-03-19T22:10:50;1092.85;;;981.47;;
31974;SDS011;18500;43.618;1.474;2023-03-19T22:13:22;1148.25;;;999.90;;
31974;SDS011;18500;43.618;1.474;2023-03-19T22:15:50;1118.57;;;994.75;;
31974;SDS011;18500;43.618;1.474;2023-03-19T22:18:17;1123.22;;;999.53;;
31974;SDS011;18500;43.618;1.474;2023-03-19T22:20:44;1108.03;;;994.35;;
31974;SDS011;18500;43.618;1.474;2023-03-19T22:23:11;1026.63;;;931.33;;
31974;SDS011;18500;43.618;1.474;2023-03-19T22:25:37;1062.75;;;958.67;;
31974;SDS011;18500;43.618;1.474;2023-03-19T22:28:12;1090.43;;;979.80;;
31974;SDS011;18500;43.618;1.474;2023-03-19T22:30:55;935.33;;;852.03;;
31974;SDS011;18500;43.618;1.474;2023-03-19T22:33:22;978.90;;;888.10;;
31974;SDS011;18500;43.618;1.474;2023-03-19T22:35:49;966.55;;;871.10;;
31974;SDS011;18500;43.618;1.474;2023-03-19T22:38:18;982.05;;;890.67;;
31974;SDS011;18500;43.618;1.474;2023-03-19T22:40:49;953.08;;;865.53;;
